Flugplatz Memmingen Allgau

Bericht für EDJA

vom 28.09. um 22:50 UTC

Wind 1 kt aus 190°

Sichtweite 10 km oder mehr

aufgebrochene Bewölkung in 1000 ft

bedeckt in 2400 ft

Temperatur 13.0°C

Taupunkt 12.0°C

Luftfeuchtigkeit 94%

Luftdruck 1019 hPa

EDJA 282250Z AUTO 19001KT 9999 // BKN010/// OVC024/// 13/12 Q1019

Prognose für EDJA

vom 28.09. um 17:00 UTC

Am 28.09. zwischen 18:00 UTC und 20:00 UTC

Wind 5 kt aus 60°

Sichtweite 10 km oder mehr

aufgebrochene Bewölkung in 2500 ft


Am 28.09. zwischen 20:00 und 22:00 UTC übergehend zu

variable Windrichtung mit 3 kt

Sichtweite 10 km oder mehr

aufgebrochene Bewölkung in 2500 ft


Zwischen 00:00 und 02:00 UTC übergehend zu

Wind 7 kt aus 220°

Sichtweite 10 km oder mehr

aufgebrochene Bewölkung in 2500 ft


Zwischen 00:00 UTC und 03:00 UTC zeitweise

Sichtweite 4000 m

Regenschauer

aufgebrochene Bewölkung in 1000 ft

aufgebrochene Bewölkung in 2500 ft

TAF EDJA 281700Z 2818/2903 06005KT 9999 BKN025 BECMG 2820/2822 VRB03KT BECMG 2900/2902 22007KT TEMPO 2900/2903 4000 SHRA BKN010 BKN025TCU
Impressum